Custar, Ohio
Current Conditions -  °F | °C
As of 1:53 AM on Saturday 25 Oct 2014 (Local Time) from KFDY Reporting Station
Clear Clear  
Wind Chill: 45°   Ceiling: Unl
Heat Index: 48°   Visibility: 8mi
Dew Point: 43°   Wind: 6mph
Humidity: 83%   Direction: 190°S
Pressure: 29.97"   Gusts: NA
Location:  41.28°N, 83.84°W
Report Text: KFDY 250553Z AUTO 19005KT 8SM CLR 09/06 A2997 RMK AO2 SLP145 T00890061 10144 20078 56009
Loading
Personal Weather Stations






























Interactive Weather Map
Tropical Storm Tracking
New forecast layout! Learn more

10-Day Weather Forecast

Advertisements
Track Severe Weather on mobile